Архив погоды в Маслянино

Метеограмма Маслянино
Вторник, 19 Июня
Время местн. Темп Ветер Видим Явления Облачность нижн/средн/верх Атм. давл. Влжн Точка росы ВНГО R Сост. почвы Tg s
Напр Скр Прв ур.ст ур.м изм
13:00 +25.4° Ю 4 - 20 км - переменная облачность 732 749 -1.4 53% +15° более 2.5 км - - - -
10:00 +22.3° штиль 0 - 20 км - ясно 733 750 +0.1 65% +15.3° более 2.5 км - - - -
07:00 +14.5° штиль 0 - 10 км небо без изменений {гроза, ливневые осадки} переменная облачность 733 751 +0.2 93% +13.4° более 2.5 км 0.9 Влажная (без луж) +12° -
04:00 +15° Ю-З 2 18 20 км небо без изменений {гроза, ливневые осадки} облачно с прояснениями 733 750 -0.9 68% +9.2° 600 м - - - -
01:00 +18.1° З 7 18 10 км слабая или умеренная гроза с осадками облачно 734 751 +2 75% +13.6° 600 м - - - -
Понедельник, 18 Июня
Время местн. Темп Ветер Видим Явления Облачность нижн/средн/верх Атм. давл. Влжн Точка росы ВНГО R Сост. почвы Tg s
Напр Скр Прв ур.ст ур.м изм
22:00 +21.3° штиль 0 - 10 км - переменная облачность 732 749 -0.2 78% +17.4° более 2.5 км - - - -
19:00 +28.1° Ю,Ю-З 2 - 20 км - переменная облачность 732 749 -0.2 61% +19.8° 1 км 0 - - -
16:00 +30.7° В 3 - 20 км - переменная облачность 732 749 -0.9 37% +14.3° более 2.5 км - - - -
13:00 +29.2° В,Ю-В 4 - 20 км - переменная облачность 733 750 -1.4 38% +13.4° более 2.5 км - - - -
10:00 +25° Ю 1 - 20 км - переменная облачность 735 752 -1 56% +15.6° более 2.5 км - - - -
07:00 +14.7° штиль 0 - 20 км - ясно 736 753 -0.5 93% +13.5° более 2.5 км 0 Сухая (без трещин) +12° -
04:00 +12.6° штиль 0 - 20 км - переменная облачность 736 754 -0.5 99% +12.5° 1 км - - - -
01:00 +15.1° В,С-В 1 - 20 км - переменная облачность 737 754 0 93% +13.9° 1 км - - - -
Воскресенье, 17 Июня
Время местн. Темп Ветер Видим Явления Облачность нижн/средн/верх Атм. давл. Влжн Точка росы ВНГО R Сост. почвы Tg s
Напр Скр Прв ур.ст ур.м изм
22:00 +19.2° В,Ю-В 1 - 20 км - переменная облачность 737 754 -0.3 77% +15° 1 км - - - -
19:00 +27.7° Ю 4 - 20 км - переменная облачность 737 754 -1 38% +12° более 2.5 км 0 - - -
16:00 +26.4° Ю-В 3 - более 50 км - облачно с прояснениями 738 755 -1.3 49% +14.7° более 2.5 км - - - -
13:00 +23.5° Ю-В 4 - более 50 км небо без изменений {туман} переменная облачность 739 756 -0.8 58% +14.7° более 2.5 км - - - -
10:00 +17.9° Ю-В 3 - 20 км небо без изменений {туман} облачно с прояснениями 740 757 -0.8 88% +15.9° 1 км - - - -
07:00 +11.2° Ю,Ю-В 1 - 500 м туман, небо видно ясно 741 759 0 100% +11.2° более 2.5 км 0 Влажная (без луж) +12° -
04:00 +10.2° З 1 - 500 м туман, небо видно ясно 741 759 +0.3 100% +10.2° более 2.5 км - - - -
01:00 +12.4° З,С-З 1 - 20 км - ясно 741 758 +0.7 100% +12.4° более 2.5 км - - - -
Суббота, 16 Июня
Время местн. Темп Ветер Видим Явления Облачность нижн/средн/верх Атм. давл. Влжн Точка росы ВНГО R Сост. почвы Tg s
Напр Скр Прв ур.ст ур.м изм
22:00 +16.5° С,С-З 1 - 20 км - облачно 740 757 +0.5 87% +14.4° 1 км - - - -
19:00 +19.4° С 1 - 20 км гроза {ливневые осадки} облачно 739 757 -0.4 75% +14.8° 1 км 0.3 - - -
16:00 +23.4° Ю 3 10 20 км - облачно 740 757 -0.2 52% +13.1° 1 км - - - -
13:00 +21.1° Ю 7 - 20 км - облачно 740 757 -0.3 58% +12.5° 1 км - - - -
10:00 +19.9° Ю 4 - 20 км - облачно 740 757 -0.2 58% +11.5° 1 км - - - -